sensor_id;sensor_type;location;lat;lon;timestamp;P1;durP1;ratioP1;P2;durP2;ratioP2
10491;SDS011;5293;51.464;-2.566;2022-12-31T00:01:03;9.17;;;2.30;;
10491;SDS011;5293;51.464;-2.566;2022-12-31T00:03:30;12.33;;;2.37;;
10491;SDS011;5293;51.464;-2.566;2022-12-31T00:05:56;14.37;;;2.77;;
10491;SDS011;5293;51.464;-2.566;2022-12-31T00:08:22;10.40;;;2.90;;
10491;SDS011;5293;51.464;-2.566;2022-12-31T00:10:47;8.67;;;2.40;;
10491;SDS011;5293;51.464;-2.566;2022-12-31T00:13:13;7.77;;;1.90;;
10491;SDS011;5293;51.464;-2.566;2022-12-31T00:15:39;7.57;;;1.97;;
10491;SDS011;5293;51.464;-2.566;2022-12-31T00:18:06;10.27;;;2.17;;
10491;SDS011;5293;51.464;-2.566;2022-12-31T00:20:32;7.27;;;2.10;;
10491;SDS011;5293;51.464;-2.566;2022-12-31T00:22:58;9.50;;;2.00;;
10491;SDS011;5293;51.464;-2.566;2022-12-31T00:25:24;12.07;;;2.57;;
10491;SDS011;5293;51.464;-2.566;2022-12-31T00:27:49;7.27;;;2.13;;
10491;SDS011;5293;51.464;-2.566;2022-12-31T00:30:15;9.27;;;2.47;;
10491;SDS011;5293;51.464;-2.566;2022-12-31T00:32:41;7.57;;;2.10;;
10491;SDS011;5293;51.464;-2.566;2022-12-31T00:35:07;12.27;;;2.43;;
10491;SDS011;5293;51.464;-2.566;2022-12-31T00:37:33;8.93;;;2.70;;
10491;SDS011;5293;51.464;-2.566;2022-12-31T00:39:59;13.57;;;3.20;;
10491;SDS011;5293;51.464;-2.566;2022-12-31T00:42:24;10.17;;;3.20;;
10491;SDS011;5293;51.464;-2.566;2022-12-31T00:44:50;13.40;;;2.43;;
10491;SDS011;5293;51.464;-2.566;2022-12-31T00:47:15;16.30;;;2.47;;
10491;SDS011;5293;51.464;-2.566;2022-12-31T00:49:41;9.70;;;1.93;;
10491;SDS011;5293;51.464;-2.566;2022-12-31T00:52:07;9.43;;;2.17;;
10491;SDS011;5293;51.464;-2.566;2022-12-31T00:54:33;8.77;;;2.07;;
10491;SDS011;5293;51.464;-2.566;2022-12-31T00:56:58;9.00;;;2.50;;
10491;SDS011;5293;51.464;-2.566;2022-12-31T00:59:24;11.07;;;2.20;;
10491;SDS011;5293;51.464;-2.566;2022-12-31T01:01:50;16.80;;;2.00;;
10491;SDS011;5293;51.464;-2.566;2022-12-31T01:04:17;11.93;;;2.77;;
10491;SDS011;5293;51.464;-2.566;2022-12-31T01:06:44;10.53;;;2.40;;
10491;SDS011;5293;51.464;-2.566;2022-12-31T01:09:10;10.93;;;2.47;;
10491;SDS011;5293;51.464;-2.566;2022-12-31T01:11:37;10.70;;;2.40;;
10491;SDS011;5293;51.464;-2.566;2022-12-31T01:14:04;7.23;;;2.20;;
10491;SDS011;5293;51.464;-2.566;2022-12-31T01:16:33;9.73;;;2.40;;
10491;SDS011;5293;51.464;-2.566;2022-12-31T01:19:04;14.20;;;1.83;;
10491;SDS011;5293;51.464;-2.566;2022-12-31T01:21:32;6.67;;;1.70;;
10491;SDS011;5293;51.464;-2.566;2022-12-31T01:23:58;9.23;;;2.00;;
10491;SDS011;5293;51.464;-2.566;2022-12-31T01:26:24;7.23;;;2.20;;
10491;SDS011;5293;51.464;-2.566;2022-12-31T01:28:51;7.70;;;2.03;;
10491;SDS011;5293;51.464;-2.566;2022-12-31T01:31:17;8.43;;;1.90;;
10491;SDS011;5293;51.464;-2.566;2022-12-31T01:33:45;7.13;;;1.67;;
10491;SDS011;5293;51.464;-2.566;2022-12-31T01:36:12;5.50;;;1.80;;
10491;SDS011;5293;51.464;-2.566;2022-12-31T01:38:42;4.23;;;1.60;;
10491;SDS011;5293;51.464;-2.566;2022-12-31T01:41:10;9.10;;;2.17;;
10491;SDS011;5293;51.464;-2.566;2022-12-31T01:46:27;7.43;;;1.87;;
10491;SDS011;5293;51.464;-2.566;2022-12-31T01:49:04;10.90;;;2.00;;
10491;SDS011;5293;51.464;-2.566;2022-12-31T01:51:37;6.50;;;1.83;;
10491;SDS011;5293;51.464;-2.566;2022-12-31T01:54:05;5.87;;;1.40;;
10491;SDS011;5293;51.464;-2.566;2022-12-31T01:56:33;4.67;;;1.20;;
10491;SDS011;5293;51.464;-2.566;2022-12-31T01:59:00;6.23;;;1.20;;
10491;SDS011;5293;51.464;-2.566;2022-12-31T02:01:30;6.80;;;1.40;;
10491;SDS011;5293;51.464;-2.566;2022-12-31T02:03:57;4.30;;;1.10;;
10491;SDS011;5293;51.464;-2.566;2022-12-31T02:06:31;6.40;;;1.20;;
10491;SDS011;5293;51.464;-2.566;2022-12-31T02:09:04;5.50;;;1.20;;
10491;SDS011;5293;51.464;-2.566;2022-12-31T02:11:32;3.63;;;1.30;;
10491;SDS011;5293;51.464;-2.566;2022-12-31T02:14:14;5.23;;;0.80;;
10491;SDS011;5293;51.464;-2.566;2022-12-31T02:22:08;4.07;;;0.70;;
10491;SDS011;5293;51.464;-2.566;2022-12-31T02:30:38;1.90;;;0.80;;
10491;SDS011;5293;51.464;-2.566;2022-12-31T02:33:12;1.77;;;0.80;;
10491;SDS011;5293;51.464;-2.566;2022-12-31T02:38:27;1.00;;;0.60;;
10491;SDS011;5293;51.464;-2.566;2022-12-31T02:40:57;2.03;;;0.77;;
10491;SDS011;5293;51.464;-2.566;2022-12-31T02:43:24;3.20;;;0.53;;
10491;SDS011;5293;51.464;-2.566;2022-12-31T02:48:46;1.10;;;0.50;;
10491;SDS011;5293;51.464;-2.566;2022-12-31T02:51:30;1.70;;;0.50;;
10491;SDS011;5293;51.464;-2.566;2022-12-31T02:54:21;0.67;;;0.50;;
10491;SDS011;5293;51.464;-2.566;2022-12-31T02:57:16;1.20;;;0.63;;
10491;SDS011;5293;51.464;-2.566;2022-12-31T02:59:49;2.83;;;1.00;;
10491;SDS011;5293;51.464;-2.566;2022-12-31T03:02:43;1.93;;;0.50;;
10491;SDS011;5293;51.464;-2.566;2022-12-31T03:05:11;1.60;;;0.40;;
10491;SDS011;5293;51.464;-2.566;2022-12-31T03:07:39;0.93;;;0.57;;
10491;SDS011;5293;51.464;-2.566;2022-12-31T03:10:06;0.63;;;0.30;;
10491;SDS011;5293;51.464;-2.566;2022-12-31T03:12:33;0.50;;;0.43;;
10491;SDS011;5293;51.464;-2.566;2022-12-31T03:17:56;1.10;;;0.40;;
10491;SDS011;5293;51.464;-2.566;2022-12-31T03:20:33;2.17;;;0.50;;
10491;SDS011;5293;51.464;-2.566;2022-12-31T03:23:25;1.47;;;0.27;;
10491;SDS011;5293;51.464;-2.566;2022-12-31T03:25:55;2.13;;;0.60;;
10491;SDS011;5293;51.464;-2.566;2022-12-31T03:28:23;1.57;;;0.40;;
10491;SDS011;5293;51.464;-2.566;2022-12-31T03:30:51;0.33;;;0.33;;
10491;SDS011;5293;51.464;-2.566;2022-12-31T03:33:19;1.23;;;0.40;;
10491;SDS011;5293;51.464;-2.566;2022-12-31T03:35:46;0.30;;;0.30;;
10491;SDS011;5293;51.464;-2.566;2022-12-31T03:38:12;1.17;;;0.30;;
10491;SDS011;5293;51.464;-2.566;2022-12-31T03:40:40;1.33;;;0.50;;
10491;SDS011;5293;51.464;-2.566;2022-12-31T03:43:08;0.20;;;0.20;;
10491;SDS011;5293;51.464;-2.566;2022-12-31T03:45:34;0.53;;;0.30;;
10491;SDS011;5293;51.464;-2.566;2022-12-31T03:48:00;0.40;;;0.30;;
10491;SDS011;5293;51.464;-2.566;2022-12-31T03:50:27;2.20;;;0.50;;
10491;SDS011;5293;51.464;-2.566;2022-12-31T03:52:53;2.20;;;0.30;;
10491;SDS011;5293;51.464;-2.566;2022-12-31T03:55:18;0.60;;;0.37;;
10491;SDS011;5293;51.464;-2.566;2022-12-31T03:57:44;0.83;;;0.40;;
10491;SDS011;5293;51.464;-2.566;2022-12-31T04:00:14;1.30;;;0.50;;
10491;SDS011;5293;51.464;-2.566;2022-12-31T04:02:44;1.07;;;0.30;;
10491;SDS011;5293;51.464;-2.566;2022-12-31T04:05:11;0.73;;;0.40;;
10491;SDS011;5293;51.464;-2.566;2022-12-31T04:07:37;0.40;;;0.40;;
10491;SDS011;5293;51.464;-2.566;2022-12-31T04:10:03;3.40;;;0.73;;
10491;SDS011;5293;51.464;-2.566;2022-12-31T04:12:31;2.40;;;0.83;;
10491;SDS011;5293;51.464;-2.566;2022-12-31T04:14:57;1.37;;;0.67;;
10491;SDS011;5293;51.464;-2.566;2022-12-31T04:17:23;1.63;;;0.63;;
10491;SDS011;5293;51.464;-2.566;2022-12-31T04:19:49;3.40;;;0.80;;
10491;SDS011;5293;51.464;-2.566;2022-12-31T04:22:15;6.93;;;0.90;;
10491;SDS011;5293;51.464;-2.566;2022-12-31T04:24:41;1.80;;;0.80;;
10491;SDS011;5293;51.464;-2.566;2022-12-31T04:27:08;2.63;;;0.80;;
10491;SDS011;5293;51.464;-2.566;2022-12-31T04:29:34;6.40;;;1.50;;
10491;SDS011;5293;51.464;-2.566;2022-12-31T04:32:00;7.40;;;1.10;;
10491;SDS011;5293;51.464;-2.566;2022-12-31T04:34:26;4.17;;;1.20;;
10491;SDS011;5293;51.464;-2.566;2022-12-31T04:36:52;3.63;;;1.37;;
10491;SDS011;5293;51.464;-2.566;2022-12-31T04:39:17;7.07;;;1.30;;
10491;SDS011;5293;51.464;-2.566;2022-12-31T04:41:43;4.80;;;1.37;;
10491;SDS011;5293;51.464;-2.566;2022-12-31T04:44:09;6.23;;;1.20;;
10491;SDS011;5293;51.464;-2.566;2022-12-31T04:46:34;4.47;;;0.93;;
10491;SDS011;5293;51.464;-2.566;2022-12-31T04:49:03;6.87;;;1.23;;
10491;SDS011;5293;51.464;-2.566;2022-12-31T04:51:28;9.70;;;1.53;;
10491;SDS011;5293;51.464;-2.566;2022-12-31T04:53:55;7.97;;;1.40;;
10491;SDS011;5293;51.464;-2.566;2022-12-31T04:56:22;3.93;;;1.83;;
10491;SDS011;5293;51.464;-2.566;2022-12-31T04:58:48;4.80;;;1.37;;
10491;SDS011;5293;51.464;-2.566;2022-12-31T05:01:13;9.27;;;1.67;;
10491;SDS011;5293;51.464;-2.566;2022-12-31T05:03:39;4.13;;;1.40;;
10491;SDS011;5293;51.464;-2.566;2022-12-31T05:06:09;8.23;;;1.80;;
10491;SDS011;5293;51.464;-2.566;2022-12-31T05:08:40;5.10;;;1.57;;
10491;SDS011;5293;51.464;-2.566;2022-12-31T05:11:05;9.67;;;1.93;;
10491;SDS011;5293;51.464;-2.566;2022-12-31T05:13:31;6.60;;;1.73;;
10491;SDS011;5293;51.464;-2.566;2022-12-31T05:15:57;8.33;;;2.40;;
10491;SDS011;5293;51.464;-2.566;2022-12-31T05:18:23;8.83;;;1.83;;
10491;SDS011;5293;51.464;-2.566;2022-12-31T05:20:49;10.57;;;2.37;;
10491;SDS011;5293;51.464;-2.566;2022-12-31T05:23:15;7.87;;;1.90;;
10491;SDS011;5293;51.464;-2.566;2022-12-31T05:25:42;11.87;;;2.40;;
10491;SDS011;5293;51.464;-2.566;2022-12-31T05:28:08;8.37;;;2.17;;
10491;SDS011;5293;51.464;-2.566;2022-12-31T05:30:34;6.93;;;2.10;;
10491;SDS011;5293;51.464;-2.566;2022-12-31T05:33:00;11.40;;;2.47;;
10491;SDS011;5293;51.464;-2.566;2022-12-31T05:35:25;10.57;;;2.10;;
10491;SDS011;5293;51.464;-2.566;2022-12-31T05:37:51;14.07;;;2.87;;
10491;SDS011;5293;51.464;-2.566;2022-12-31T05:40:17;8.73;;;2.93;;
10491;SDS011;5293;51.464;-2.566;2022-12-31T05:42:42;12.80;;;2.30;;
10491;SDS011;5293;51.464;-2.566;2022-12-31T05:45:08;11.90;;;2.43;;
10491;SDS011;5293;51.464;-2.566;2022-12-31T05:47:37;13.50;;;2.60;;
10491;SDS011;5293;51.464;-2.566;2022-12-31T05:50:04;9.80;;;2.20;;
10491;SDS011;5293;51.464;-2.566;2022-12-31T05:52:31;12.53;;;3.00;;
10491;SDS011;5293;51.464;-2.566;2022-12-31T05:54:57;14.43;;;3.53;;
10491;SDS011;5293;51.464;-2.566;2022-12-31T05:57:22;8.40;;;2.53;;
10491;SDS011;5293;51.464;-2.566;2022-12-31T05:59:48;11.57;;;2.70;;
10491;SDS011;5293;51.464;-2.566;2022-12-31T06:02:14;15.17;;;2.30;;
10491;SDS011;5293;51.464;-2.566;2022-12-31T06:04:39;11.93;;;3.03;;
10491;SDS011;5293;51.464;-2.566;2022-12-31T06:07:05;7.80;;;2.67;;
10491;SDS011;5293;51.464;-2.566;2022-12-31T06:09:30;18.20;;;3.67;;
10491;SDS011;5293;51.464;-2.566;2022-12-31T06:11:56;14.43;;;3.23;;
10491;SDS011;5293;51.464;-2.566;2022-12-31T06:14:22;12.90;;;3.67;;
10491;SDS011;5293;51.464;-2.566;2022-12-31T06:16:47;12.87;;;2.83;;
10491;SDS011;5293;51.464;-2.566;2022-12-31T06:19:13;12.37;;;2.93;;
10491;SDS011;5293;51.464;-2.566;2022-12-31T06:21:39;18.73;;;3.50;;
10491;SDS011;5293;51.464;-2.566;2022-12-31T06:24:04;12.43;;;3.60;;
10491;SDS011;5293;51.464;-2.566;2022-12-31T06:26:30;11.73;;;2.83;;
10491;SDS011;5293;51.464;-2.566;2022-12-31T06:28:56;13.77;;;2.87;;
10491;SDS011;5293;51.464;-2.566;2022-12-31T06:31:21;12.17;;;3.13;;
10491;SDS011;5293;51.464;-2.566;2022-12-31T06:33:47;6.30;;;2.50;;
10491;SDS011;5293;51.464;-2.566;2022-12-31T06:36:13;12.70;;;2.73;;
10491;SDS011;5293;51.464;-2.566;2022-12-31T06:38:41;10.93;;;2.50;;
10491;SDS011;5293;51.464;-2.566;2022-12-31T06:41:11;13.00;;;2.60;;
10491;SDS011;5293;51.464;-2.566;2022-12-31T06:43:38;8.63;;;2.30;;
10491;SDS011;5293;51.464;-2.566;2022-12-31T06:46:05;8.53;;;2.43;;
10491;SDS011;5293;51.464;-2.566;2022-12-31T06:48:32;14.20;;;2.97;;
10491;SDS011;5293;51.464;-2.566;2022-12-31T06:51:02;9.13;;;2.63;;
10491;SDS011;5293;51.464;-2.566;2022-12-31T06:53:29;12.57;;;2.90;;
10491;SDS011;5293;51.464;-2.566;2022-12-31T06:55:55;9.17;;;2.53;;
10491;SDS011;5293;51.464;-2.566;2022-12-31T06:58:21;14.03;;;3.37;;
10491;SDS011;5293;51.464;-2.566;2022-12-31T07:00:53;14.33;;;3.43;;
10491;SDS011;5293;51.464;-2.566;2022-12-31T07:03:34;17.23;;;3.33;;
10491;SDS011;5293;51.464;-2.566;2022-12-31T07:06:11;13.87;;;3.70;;
10491;SDS011;5293;51.464;-2.566;2022-12-31T07:18:50;14.23;;;3.40;;
10491;SDS011;5293;51.464;-2.566;2022-12-31T07:21:21;16.20;;;3.87;;
10491;SDS011;5293;51.464;-2.566;2022-12-31T07:23:59;22.43;;;3.83;;
10491;SDS011;5293;51.464;-2.566;2022-12-31T07:34:40;16.30;;;3.13;;
10491;SDS011;5293;51.464;-2.566;2022-12-31T07:42:43;21.77;;;4.40;;
10491;SDS011;5293;51.464;-2.566;2022-12-31T07:48:01;13.67;;;3.40;;
10491;SDS011;5293;51.464;-2.566;2022-12-31T07:50:27;12.07;;;3.53;;
10491;SDS011;5293;51.464;-2.566;2022-12-31T07:52:53;10.40;;;2.50;;
10491;SDS011;5293;51.464;-2.566;2022-12-31T07:55:19;13.57;;;2.73;;
10491;SDS011;5293;51.464;-2.566;2022-12-31T07:57:56;11.03;;;2.97;;
10491;SDS011;5293;51.464;-2.566;2022-12-31T08:00:32;11.90;;;3.23;;
10491;SDS011;5293;51.464;-2.566;2022-12-31T08:10:46;13.07;;;2.77;;
10491;SDS011;5293;51.464;-2.566;2022-12-31T08:13:15;12.60;;;2.60;;
10491;SDS011;5293;51.464;-2.566;2022-12-31T08:15:42;10.90;;;3.47;;
10491;SDS011;5293;51.464;-2.566;2022-12-31T08:18:08;8.90;;;2.30;;
10491;SDS011;5293;51.464;-2.566;2022-12-31T08:20:37;12.87;;;2.80;;
10491;SDS011;5293;51.464;-2.566;2022-12-31T08:23:21;10.57;;;2.33;;
10491;SDS011;5293;51.464;-2.566;2022-12-31T08:28:38;13.23;;;3.00;;
10491;SDS011;5293;51.464;-2.566;2022-12-31T08:31:38;16.43;;;3.10;;
10491;SDS011;5293;51.464;-2.566;2022-12-31T08:34:22;13.73;;;2.83;;
10491;SDS011;5293;51.464;-2.566;2022-12-31T08:37:15;11.27;;;2.67;;
10491;SDS011;5293;51.464;-2.566;2022-12-31T08:50:12;18.17;;;3.13;;
10491;SDS011;5293;51.464;-2.566;2022-12-31T08:52:39;12.83;;;3.53;;
10491;SDS011;5293;51.464;-2.566;2022-12-31T08:55:06;13.47;;;3.03;;
10491;SDS011;5293;51.464;-2.566;2022-12-31T08:57:43;17.13;;;3.97;;
10491;SDS011;5293;51.464;-2.566;2022-12-31T09:00:28;12.50;;;3.40;;
10491;SDS011;5293;51.464;-2.566;2022-12-31T09:05:59;16.97;;;3.90;;
10491;SDS011;5293;51.464;-2.566;2022-12-31T09:16:54;18.40;;;4.37;;
10491;SDS011;5293;51.464;-2.566;2022-12-31T09:19:26;16.47;;;3.90;;
10491;SDS011;5293;51.464;-2.566;2022-12-31T09:21:52;15.47;;;4.03;;
10491;SDS011;5293;51.464;-2.566;2022-12-31T09:24:18;26.87;;;5.53;;
10491;SDS011;5293;51.464;-2.566;2022-12-31T09:35:13;20.80;;;3.37;;
10491;SDS011;5293;51.464;-2.566;2022-12-31T09:37:47;29.20;;;4.23;;
10491;SDS011;5293;51.464;-2.566;2022-12-31T09:56:35;8.80;;;2.23;;
10491;SDS011;5293;51.464;-2.566;2022-12-31T10:01:55;7.00;;;1.87;;
10491;SDS011;5293;51.464;-2.566;2022-12-31T10:07:23;8.95;;;2.60;;
10491;SDS011;5293;51.464;-2.566;2022-12-31T10:22:04;10.10;;;2.50;;
10491;SDS011;5293;51.464;-2.566;2022-12-31T10:32:13;14.65;;;3.22;;
10491;SDS011;5293;51.464;-2.566;2022-12-31T10:41:16;14.35;;;3.65;;
10491;SDS011;5293;51.464;-2.566;2022-12-31T10:55:00;11.97;;;2.60;;
10491;SDS011;5293;51.464;-2.566;2022-12-31T11:00:52;7.63;;;2.47;;
10491;SDS011;5293;51.464;-2.566;2022-12-31T11:14:38;11.73;;;3.10;;
10491;SDS011;5293;51.464;-2.566;2022-12-31T11:17:11;10.00;;;2.87;;
10491;SDS011;5293;51.464;-2.566;2022-12-31T11:23:06;11.00;;;2.90;;
10491;SDS011;5293;51.464;-2.566;2022-12-31T11:36:11;6.97;;;2.03;;
10491;SDS011;5293;51.464;-2.566;2022-12-31T11:38:56;10.10;;;1.83;;
10491;SDS011;5293;51.464;-2.566;2022-12-31T11:41:48;7.67;;;2.13;;
10491;SDS011;5293;51.464;-2.566;2022-12-31T11:44:23;5.13;;;2.03;;
10491;SDS011;5293;51.464;-2.566;2022-12-31T11:46:57;5.00;;;1.73;;
10491;SDS011;5293;51.464;-2.566;2022-12-31T11:57:21;5.00;;;1.27;;
10491;SDS011;5293;51.464;-2.566;2022-12-31T11:59:50;1.73;;;1.10;;
10491;SDS011;5293;51.464;-2.566;2022-12-31T12:04:54;4.07;;;1.30;;
10491;SDS011;5293;51.464;-2.566;2022-12-31T12:07:23;2.33;;;0.90;;
10491;SDS011;5293;51.464;-2.566;2022-12-31T12:09:50;5.10;;;1.47;;
10491;SDS011;5293;51.464;-2.566;2022-12-31T12:12:18;3.27;;;1.17;;
10491;SDS011;5293;51.464;-2.566;2022-12-31T12:14:44;4.13;;;1.10;;
10491;SDS011;5293;51.464;-2.566;2022-12-31T12:17:23;5.70;;;1.10;;
10491;SDS011;5293;51.464;-2.566;2022-12-31T12:19:55;2.40;;;1.10;;
10491;SDS011;5293;51.464;-2.566;2022-12-31T12:22:24;2.63;;;1.40;;
10491;SDS011;5293;51.464;-2.566;2022-12-31T12:25:05;1.87;;;1.10;;
10491;SDS011;5293;51.464;-2.566;2022-12-31T12:27:39;2.13;;;1.10;;
10491;SDS011;5293;51.464;-2.566;2022-12-31T12:33:12;2.73;;;1.20;;
10491;SDS011;5293;51.464;-2.566;2022-12-31T12:35:41;3.93;;;1.30;;
10491;SDS011;5293;51.464;-2.566;2022-12-31T12:38:15;5.77;;;1.20;;
10491;SDS011;5293;51.464;-2.566;2022-12-31T12:40:53;3.60;;;1.20;;
10491;SDS011;5293;51.464;-2.566;2022-12-31T12:43:24;5.80;;;1.33;;
10491;SDS011;5293;51.464;-2.566;2022-12-31T12:45:59;4.07;;;1.67;;
10491;SDS011;5293;51.464;-2.566;2022-12-31T12:48:40;1.67;;;1.20;;
10491;SDS011;5293;51.464;-2.566;2022-12-31T12:51:56;5.50;;;1.67;;
10491;SDS011;5293;51.464;-2.566;2022-12-31T12:54:30;6.10;;;1.70;;
10491;SDS011;5293;51.464;-2.566;2022-12-31T13:02:40;6.23;;;1.90;;
10491;SDS011;5293;51.464;-2.566;2022-12-31T13:05:20;10.50;;;2.60;;
10491;SDS011;5293;51.464;-2.566;2022-12-31T13:19:21;8.20;;;2.40;;
10491;SDS011;5293;51.464;-2.566;2022-12-31T13:25:05;6.40;;;2.57;;
10491;SDS011;5293;51.464;-2.566;2022-12-31T13:27:52;3.93;;;2.17;;
10491;SDS011;5293;51.464;-2.566;2022-12-31T13:30:22;6.37;;;1.30;;
10491;SDS011;5293;51.464;-2.566;2022-12-31T13:33:00;3.60;;;1.20;;
10491;SDS011;5293;51.464;-2.566;2022-12-31T13:35:31;4.93;;;1.30;;
10491;SDS011;5293;51.464;-2.566;2022-12-31T13:38:05;2.60;;;1.30;;
10491;SDS011;5293;51.464;-2.566;2022-12-31T13:49:20;1.70;;;1.10;;
10491;SDS011;5293;51.464;-2.566;2022-12-31T13:51:51;4.47;;;1.10;;
10491;SDS011;5293;51.464;-2.566;2022-12-31T13:54:28;2.20;;;1.00;;
10491;SDS011;5293;51.464;-2.566;2022-12-31T13:57:04;1.07;;;0.93;;
10491;SDS011;5293;51.464;-2.566;2022-12-31T13:59:37;2.47;;;0.90;;
10491;SDS011;5293;51.464;-2.566;2022-12-31T14:04:41;1.97;;;0.97;;
10491;SDS011;5293;51.464;-2.566;2022-12-31T14:07:17;0.63;;;0.63;;
10491;SDS011;5293;51.464;-2.566;2022-12-31T14:09:46;1.67;;;0.87;;
10491;SDS011;5293;51.464;-2.566;2022-12-31T14:14:53;0.93;;;0.70;;
10491;SDS011;5293;51.464;-2.566;2022-12-31T14:25:47;1.53;;;0.70;;
10491;SDS011;5293;51.464;-2.566;2022-12-31T14:28:25;1.27;;;0.70;;
10491;SDS011;5293;51.464;-2.566;2022-12-31T14:30:57;1.40;;;0.60;;
10491;SDS011;5293;51.464;-2.566;2022-12-31T14:36:31;0.97;;;0.60;;
10491;SDS011;5293;51.464;-2.566;2022-12-31T14:42:12;0.50;;;0.47;;
10491;SDS011;5293;51.464;-2.566;2022-12-31T14:47:56;1.17;;;0.47;;
10491;SDS011;5293;51.464;-2.566;2022-12-31T14:50:44;1.13;;;0.40;;
10491;SDS011;5293;51.464;-2.566;2022-12-31T14:53:16;0.47;;;0.47;;
10491;SDS011;5293;51.464;-2.566;2022-12-31T14:55:55;1.53;;;0.67;;
10491;SDS011;5293;51.464;-2.566;2022-12-31T14:58:38;1.83;;;0.70;;
10491;SDS011;5293;51.464;-2.566;2022-12-31T15:03:43;0.57;;;0.57;;
10491;SDS011;5293;51.464;-2.566;2022-12-31T15:11:57;0.50;;;0.50;;
10491;SDS011;5293;51.464;-2.566;2022-12-31T15:17:29;0.53;;;0.53;;
10491;SDS011;5293;51.464;-2.566;2022-12-31T15:25:28;0.40;;;0.40;;
10491;SDS011;5293;51.464;-2.566;2022-12-31T15:28:05;0.53;;;0.53;;
10491;SDS011;5293;51.464;-2.566;2022-12-31T15:30:51;0.40;;;0.40;;
10491;SDS011;5293;51.464;-2.566;2022-12-31T15:35:49;0.40;;;0.40;;
10491;SDS011;5293;51.464;-2.566;2022-12-31T15:40:55;0.50;;;0.50;;
10491;SDS011;5293;51.464;-2.566;2022-12-31T15:45:54;0.30;;;0.30;;
10491;SDS011;5293;51.464;-2.566;2022-12-31T15:48:25;0.43;;;0.43;;
10491;SDS011;5293;51.464;-2.566;2022-12-31T15:51:00;0.53;;;0.53;;
10491;SDS011;5293;51.464;-2.566;2022-12-31T15:53:39;0.40;;;0.40;;
10491;SDS011;5293;51.464;-2.566;2022-12-31T15:56:10;0.30;;;0.30;;
10491;SDS011;5293;51.464;-2.566;2022-12-31T15:58:43;0.60;;;0.53;;
10491;SDS011;5293;51.464;-2.566;2022-12-31T16:03:57;0.67;;;0.60;;
10491;SDS011;5293;51.464;-2.566;2022-12-31T16:06:34;0.77;;;0.60;;
10491;SDS011;5293;51.464;-2.566;2022-12-31T16:09:02;0.87;;;0.77;;
10491;SDS011;5293;51.464;-2.566;2022-12-31T16:11:33;0.90;;;0.70;;
10491;SDS011;5293;51.464;-2.566;2022-12-31T16:14:05;0.60;;;0.60;;
10491;SDS011;5293;51.464;-2.566;2022-12-31T16:16:31;1.37;;;0.80;;
10491;SDS011;5293;51.464;-2.566;2022-12-31T16:18:57;0.67;;;0.67;;
10491;SDS011;5293;51.464;-2.566;2022-12-31T16:23:50;0.97;;;0.97;;
10491;SDS011;5293;51.464;-2.566;2022-12-31T16:26:16;1.50;;;1.23;;
10491;SDS011;5293;51.464;-2.566;2022-12-31T16:28:42;0.90;;;0.90;;
10491;SDS011;5293;51.464;-2.566;2022-12-31T16:31:13;0.70;;;0.70;;
10491;SDS011;5293;51.464;-2.566;2022-12-31T16:33:42;1.10;;;1.00;;
10491;SDS011;5293;51.464;-2.566;2022-12-31T16:36:21;1.37;;;0.80;;
10491;SDS011;5293;51.464;-2.566;2022-12-31T16:38:48;1.77;;;0.80;;
10491;SDS011;5293;51.464;-2.566;2022-12-31T16:41:15;1.30;;;0.70;;
10491;SDS011;5293;51.464;-2.566;2022-12-31T16:43:46;1.90;;;0.90;;
10491;SDS011;5293;51.464;-2.566;2022-12-31T16:48:51;0.90;;;0.90;;
10491;SDS011;5293;51.464;-2.566;2022-12-31T16:51:26;1.20;;;0.90;;
10491;SDS011;5293;51.464;-2.566;2022-12-31T16:53:54;0.63;;;0.63;;
10491;SDS011;5293;51.464;-2.566;2022-12-31T16:56:22;1.10;;;0.80;;
10491;SDS011;5293;51.464;-2.566;2022-12-31T16:59:03;0.77;;;0.77;;
10491;SDS011;5293;51.464;-2.566;2022-12-31T17:01:36;0.60;;;0.60;;
10491;SDS011;5293;51.464;-2.566;2022-12-31T17:04:07;0.77;;;0.77;;
10491;SDS011;5293;51.464;-2.566;2022-12-31T17:06:35;0.80;;;0.80;;
10491;SDS011;5293;51.464;-2.566;2022-12-31T17:11:51;0.90;;;0.90;;
10491;SDS011;5293;51.464;-2.566;2022-12-31T17:14:26;1.00;;;1.00;;
10491;SDS011;5293;51.464;-2.566;2022-12-31T17:17:02;0.80;;;0.80;;
10491;SDS011;5293;51.464;-2.566;2022-12-31T17:19:41;1.43;;;0.80;;
10491;SDS011;5293;51.464;-2.566;2022-12-31T17:27:52;1.50;;;0.90;;
10491;SDS011;5293;51.464;-2.566;2022-12-31T17:33:29;0.80;;;0.80;;
10491;SDS011;5293;51.464;-2.566;2022-12-31T17:35:53;0.90;;;0.90;;
10491;SDS011;5293;51.464;-2.566;2022-12-31T17:38:37;1.00;;;0.90;;
10491;SDS011;5293;51.464;-2.566;2022-12-31T17:43:32;1.20;;;1.10;;
10491;SDS011;5293;51.464;-2.566;2022-12-31T17:46:02;1.70;;;1.60;;
10491;SDS011;5293;51.464;-2.566;2022-12-31T17:48:37;4.63;;;3.17;;
10491;SDS011;5293;51.464;-2.566;2022-12-31T17:51:03;4.17;;;3.60;;
10491;SDS011;5293;51.464;-2.566;2022-12-31T17:53:29;5.97;;;4.30;;
10491;SDS011;5293;51.464;-2.566;2022-12-31T17:55:55;7.47;;;5.30;;
10491;SDS011;5293;51.464;-2.566;2022-12-31T17:58:25;7.80;;;6.10;;
10491;SDS011;5293;51.464;-2.566;2022-12-31T18:00:57;10.73;;;7.27;;
10491;SDS011;5293;51.464;-2.566;2022-12-31T18:03:23;9.47;;;7.43;;
10491;SDS011;5293;51.464;-2.566;2022-12-31T18:05:49;9.70;;;7.07;;
10491;SDS011;5293;51.464;-2.566;2022-12-31T18:08:15;7.47;;;5.67;;
10491;SDS011;5293;51.464;-2.566;2022-12-31T18:10:41;5.90;;;4.97;;
10491;SDS011;5293;51.464;-2.566;2022-12-31T18:13:15;5.63;;;3.87;;
10491;SDS011;5293;51.464;-2.566;2022-12-31T18:15:43;3.47;;;2.80;;
10491;SDS011;5293;51.464;-2.566;2022-12-31T18:18:16;2.53;;;2.20;;
10491;SDS011;5293;51.464;-2.566;2022-12-31T18:20:50;2.40;;;2.17;;
10491;SDS011;5293;51.464;-2.566;2022-12-31T18:23:34;3.10;;;2.73;;
10491;SDS011;5293;51.464;-2.566;2022-12-31T18:26:14;3.20;;;2.43;;
10491;SDS011;5293;51.464;-2.566;2022-12-31T18:28:41;2.70;;;2.50;;
10491;SDS011;5293;51.464;-2.566;2022-12-31T18:31:17;4.83;;;2.57;;
10491;SDS011;5293;51.464;-2.566;2022-12-31T18:33:54;4.57;;;3.13;;
10491;SDS011;5293;51.464;-2.566;2022-12-31T18:36:21;4.00;;;3.03;;
10491;SDS011;5293;51.464;-2.566;2022-12-31T18:38:47;2.57;;;2.37;;
10491;SDS011;5293;51.464;-2.566;2022-12-31T18:41:17;2.10;;;2.00;;
10491;SDS011;5293;51.464;-2.566;2022-12-31T18:43:44;2.20;;;2.00;;
10491;SDS011;5293;51.464;-2.566;2022-12-31T18:46:14;2.10;;;1.93;;
10491;SDS011;5293;51.464;-2.566;2022-12-31T18:48:42;2.00;;;1.80;;
10491;SDS011;5293;51.464;-2.566;2022-12-31T18:51:20;2.70;;;1.93;;
10491;SDS011;5293;51.464;-2.566;2022-12-31T18:53:48;1.77;;;1.67;;
10491;SDS011;5293;51.464;-2.566;2022-12-31T18:56:15;2.30;;;1.87;;
10491;SDS011;5293;51.464;-2.566;2022-12-31T18:58:43;2.03;;;1.90;;
10491;SDS011;5293;51.464;-2.566;2022-12-31T19:03:58;1.90;;;1.80;;
10491;SDS011;5293;51.464;-2.566;2022-12-31T19:06:26;3.10;;;2.80;;
10491;SDS011;5293;51.464;-2.566;2022-12-31T19:08:52;1.90;;;1.70;;
10491;SDS011;5293;51.464;-2.566;2022-12-31T19:11:18;1.87;;;1.40;;
10491;SDS011;5293;51.464;-2.566;2022-12-31T19:13:45;1.73;;;1.50;;
10491;SDS011;5293;51.464;-2.566;2022-12-31T19:16:11;1.40;;;1.30;;
10491;SDS011;5293;51.464;-2.566;2022-12-31T19:18:38;1.33;;;1.30;;
10491;SDS011;5293;51.464;-2.566;2022-12-31T19:21:04;1.30;;;1.20;;
10491;SDS011;5293;51.464;-2.566;2022-12-31T19:23:31;2.17;;;1.30;;
10491;SDS011;5293;51.464;-2.566;2022-12-31T19:25:57;1.07;;;1.00;;
10491;SDS011;5293;51.464;-2.566;2022-12-31T19:28:23;2.33;;;1.30;;
10491;SDS011;5293;51.464;-2.566;2022-12-31T19:30:51;0.87;;;0.87;;
10491;SDS011;5293;51.464;-2.566;2022-12-31T19:33:17;2.80;;;1.43;;
10491;SDS011;5293;51.464;-2.566;2022-12-31T19:35:44;3.13;;;1.13;;
10491;SDS011;5293;51.464;-2.566;2022-12-31T19:38:14;0.97;;;0.97;;
10491;SDS011;5293;51.464;-2.566;2022-12-31T19:40:53;1.90;;;1.70;;
10491;SDS011;5293;51.464;-2.566;2022-12-31T19:43:20;8.87;;;7.43;;
10491;SDS011;5293;51.464;-2.566;2022-12-31T19:45:47;4.10;;;2.93;;
10491;SDS011;5293;51.464;-2.566;2022-12-31T19:48:17;3.97;;;3.57;;
10491;SDS011;5293;51.464;-2.566;2022-12-31T19:50:48;2.50;;;2.30;;
10491;SDS011;5293;51.464;-2.566;2022-12-31T19:53:19;1.10;;;1.00;;